sensor_id;sensor_type;location;lat;lon;timestamp;P1;durP1;ratioP1;P2;durP2;ratioP2
19907;SDS011;10116;53.112;7.356;2024-02-21T00:00:45;3.07;;;2.60;;
19907;SDS011;10116;53.112;7.356;2024-02-21T00:03:10;4.30;;;2.70;;
19907;SDS011;10116;53.112;7.356;2024-02-21T00:05:36;2.63;;;2.43;;
19907;SDS011;10116;53.112;7.356;2024-02-21T00:08:02;3.67;;;2.83;;
19907;SDS011;10116;53.112;7.356;2024-02-21T00:10:28;2.93;;;2.63;;
19907;SDS011;10116;53.112;7.356;2024-02-21T00:12:54;3.23;;;2.73;;
19907;SDS011;10116;53.112;7.356;2024-02-21T00:15:19;4.17;;;2.50;;
19907;SDS011;10116;53.112;7.356;2024-02-21T00:17:46;5.23;;;2.90;;
19907;SDS011;10116;53.112;7.356;2024-02-21T00:20:12;3.20;;;2.60;;
19907;SDS011;10116;53.112;7.356;2024-02-21T00:22:37;2.47;;;2.27;;
19907;SDS011;10116;53.112;7.356;2024-02-21T00:25:03;3.37;;;2.80;;
19907;SDS011;10116;53.112;7.356;2024-02-21T00:27:29;4.23;;;2.50;;
19907;SDS011;10116;53.112;7.356;2024-02-21T00:29:56;2.70;;;2.50;;
19907;SDS011;10116;53.112;7.356;2024-02-21T00:32:21;3.20;;;2.50;;
19907;SDS011;10116;53.112;7.356;2024-02-21T00:34:47;4.87;;;3.00;;
19907;SDS011;10116;53.112;7.356;2024-02-21T00:37:12;4.20;;;2.63;;
19907;SDS011;10116;53.112;7.356;2024-02-21T00:39:38;3.90;;;2.60;;
19907;SDS011;10116;53.112;7.356;2024-02-21T00:42:04;3.47;;;2.50;;
19907;SDS011;10116;53.112;7.356;2024-02-21T00:44:30;5.67;;;3.27;;
19907;SDS011;10116;53.112;7.356;2024-02-21T00:46:55;3.57;;;2.67;;
19907;SDS011;10116;53.112;7.356;2024-02-21T00:49:22;2.73;;;2.43;;
19907;SDS011;10116;53.112;7.356;2024-02-21T00:51:48;3.60;;;3.00;;
19907;SDS011;10116;53.112;7.356;2024-02-21T00:54:13;3.27;;;2.97;;
19907;SDS011;10116;53.112;7.356;2024-02-21T00:56:39;3.47;;;2.70;;
19907;SDS011;10116;53.112;7.356;2024-02-21T00:59:05;2.40;;;2.10;;
19907;SDS011;10116;53.112;7.356;2024-02-21T01:01:30;2.77;;;2.47;;
19907;SDS011;10116;53.112;7.356;2024-02-21T01:03:56;2.63;;;2.40;;
19907;SDS011;10116;53.112;7.356;2024-02-21T01:06:21;2.83;;;2.60;;
19907;SDS011;10116;53.112;7.356;2024-02-21T01:08:48;4.30;;;2.87;;
19907;SDS011;10116;53.112;7.356;2024-02-21T01:11:14;3.00;;;2.60;;
19907;SDS011;10116;53.112;7.356;2024-02-21T01:13:40;3.47;;;2.83;;
19907;SDS011;10116;53.112;7.356;2024-02-21T01:16:06;2.83;;;2.40;;
19907;SDS011;10116;53.112;7.356;2024-02-21T01:18:32;3.70;;;2.80;;
19907;SDS011;10116;53.112;7.356;2024-02-21T01:20:59;3.67;;;2.43;;
19907;SDS011;10116;53.112;7.356;2024-02-21T01:23:24;5.60;;;2.67;;
19907;SDS011;10116;53.112;7.356;2024-02-21T01:25:50;2.40;;;2.20;;
19907;SDS011;10116;53.112;7.356;2024-02-21T01:28:16;3.43;;;2.90;;
19907;SDS011;10116;53.112;7.356;2024-02-21T01:30:43;4.23;;;2.53;;
19907;SDS011;10116;53.112;7.356;2024-02-21T01:33:08;3.70;;;2.73;;
19907;SDS011;10116;53.112;7.356;2024-02-21T01:35:34;2.97;;;2.67;;
19907;SDS011;10116;53.112;7.356;2024-02-21T01:38:01;2.57;;;2.40;;
19907;SDS011;10116;53.112;7.356;2024-02-21T01:40:27;2.80;;;2.53;;
19907;SDS011;10116;53.112;7.356;2024-02-21T01:42:54;4.17;;;2.63;;
19907;SDS011;10116;53.112;7.356;2024-02-21T01:45:21;3.17;;;2.90;;
19907;SDS011;10116;53.112;7.356;2024-02-21T01:47:47;2.47;;;2.27;;
19907;SDS011;10116;53.112;7.356;2024-02-21T01:50:13;4.03;;;2.73;;
19907;SDS011;10116;53.112;7.356;2024-02-21T01:52:40;2.23;;;2.13;;
19907;SDS011;10116;53.112;7.356;2024-02-21T01:55:07;4.40;;;2.80;;
19907;SDS011;10116;53.112;7.356;2024-02-21T01:57:34;3.13;;;2.60;;
19907;SDS011;10116;53.112;7.356;2024-02-21T02:00:00;3.43;;;2.83;;
19907;SDS011;10116;53.112;7.356;2024-02-21T02:02:26;2.80;;;2.60;;
19907;SDS011;10116;53.112;7.356;2024-02-21T02:04:52;2.47;;;2.37;;
19907;SDS011;10116;53.112;7.356;2024-02-21T02:07:18;2.90;;;2.63;;
19907;SDS011;10116;53.112;7.356;2024-02-21T02:09:43;3.10;;;2.80;;
19907;SDS011;10116;53.112;7.356;2024-02-21T02:12:09;2.40;;;2.30;;
19907;SDS011;10116;53.112;7.356;2024-02-21T02:14:35;2.47;;;2.27;;
19907;SDS011;10116;53.112;7.356;2024-02-21T02:17:00;2.37;;;2.17;;
19907;SDS011;10116;53.112;7.356;2024-02-21T02:19:26;3.23;;;2.90;;
19907;SDS011;10116;53.112;7.356;2024-02-21T02:21:53;2.80;;;2.40;;
19907;SDS011;10116;53.112;7.356;2024-02-21T02:24:24;2.63;;;2.40;;
19907;SDS011;10116;53.112;7.356;2024-02-21T02:26:52;3.80;;;2.80;;
19907;SDS011;10116;53.112;7.356;2024-02-21T02:29:18;3.23;;;2.53;;
19907;SDS011;10116;53.112;7.356;2024-02-21T02:31:44;4.00;;;2.87;;
19907;SDS011;10116;53.112;7.356;2024-02-21T02:34:10;2.80;;;2.40;;
19907;SDS011;10116;53.112;7.356;2024-02-21T02:36:35;2.53;;;2.37;;
19907;SDS011;10116;53.112;7.356;2024-02-21T02:39:01;3.10;;;2.10;;
19907;SDS011;10116;53.112;7.356;2024-02-21T02:41:27;4.20;;;2.43;;
19907;SDS011;10116;53.112;7.356;2024-02-21T02:43:52;2.07;;;1.97;;
19907;SDS011;10116;53.112;7.356;2024-02-21T02:46:18;3.00;;;2.40;;
19907;SDS011;10116;53.112;7.356;2024-02-21T02:48:44;2.60;;;2.40;;
19907;SDS011;10116;53.112;7.356;2024-02-21T02:51:10;2.93;;;2.27;;
19907;SDS011;10116;53.112;7.356;2024-02-21T02:53:35;3.43;;;2.60;;
19907;SDS011;10116;53.112;7.356;2024-02-21T02:56:01;2.70;;;2.40;;
19907;SDS011;10116;53.112;7.356;2024-02-21T02:58:27;2.40;;;2.20;;
19907;SDS011;10116;53.112;7.356;2024-02-21T03:00:53;2.33;;;2.13;;
19907;SDS011;10116;53.112;7.356;2024-02-21T03:03:19;2.70;;;2.50;;
19907;SDS011;10116;53.112;7.356;2024-02-21T03:05:45;2.90;;;2.50;;
19907;SDS011;10116;53.112;7.356;2024-02-21T03:08:11;3.00;;;2.53;;
19907;SDS011;10116;53.112;7.356;2024-02-21T03:10:36;2.97;;;2.30;;
19907;SDS011;10116;53.112;7.356;2024-02-21T03:13:02;3.23;;;2.30;;
19907;SDS011;10116;53.112;7.356;2024-02-21T03:15:28;2.93;;;2.30;;
19907;SDS011;10116;53.112;7.356;2024-02-21T03:17:54;2.33;;;2.17;;
19907;SDS011;10116;53.112;7.356;2024-02-21T03:20:20;2.63;;;2.43;;
19907;SDS011;10116;53.112;7.356;2024-02-21T03:22:45;2.30;;;2.20;;
19907;SDS011;10116;53.112;7.356;2024-02-21T03:25:11;2.87;;;2.57;;
19907;SDS011;10116;53.112;7.356;2024-02-21T03:27:39;2.37;;;2.20;;
19907;SDS011;10116;53.112;7.356;2024-02-21T03:30:04;1.97;;;1.87;;
19907;SDS011;10116;53.112;7.356;2024-02-21T03:32:30;4.77;;;2.70;;
19907;SDS011;10116;53.112;7.356;2024-02-21T03:34:56;2.50;;;2.30;;
19907;SDS011;10116;53.112;7.356;2024-02-21T03:37:22;2.50;;;2.30;;
19907;SDS011;10116;53.112;7.356;2024-02-21T03:39:47;4.60;;;2.07;;
19907;SDS011;10116;53.112;7.356;2024-02-21T03:42:13;3.27;;;2.40;;
19907;SDS011;10116;53.112;7.356;2024-02-21T03:44:39;2.20;;;2.10;;
19907;SDS011;10116;53.112;7.356;2024-02-21T03:47:04;1.90;;;1.80;;
19907;SDS011;10116;53.112;7.356;2024-02-21T03:49:30;2.10;;;1.90;;
19907;SDS011;10116;53.112;7.356;2024-02-21T03:51:55;2.00;;;1.90;;
19907;SDS011;10116;53.112;7.356;2024-02-21T03:54:21;1.93;;;1.83;;
19907;SDS011;10116;53.112;7.356;2024-02-21T03:56:47;2.10;;;2.00;;
19907;SDS011;10116;53.112;7.356;2024-02-21T03:59:13;1.70;;;1.63;;
19907;SDS011;10116;53.112;7.356;2024-02-21T04:01:39;2.10;;;2.00;;
19907;SDS011;10116;53.112;7.356;2024-02-21T04:04:05;1.70;;;1.60;;
19907;SDS011;10116;53.112;7.356;2024-02-21T04:06:30;1.97;;;1.87;;
19907;SDS011;10116;53.112;7.356;2024-02-21T04:08:56;2.20;;;1.97;;
19907;SDS011;10116;53.112;7.356;2024-02-21T04:11:22;1.70;;;1.60;;
19907;SDS011;10116;53.112;7.356;2024-02-21T04:13:48;2.17;;;1.80;;
19907;SDS011;10116;53.112;7.356;2024-02-21T04:16:15;2.17;;;2.00;;
19907;SDS011;10116;53.112;7.356;2024-02-21T04:18:41;2.17;;;1.63;;
19907;SDS011;10116;53.112;7.356;2024-02-21T04:21:07;2.10;;;1.80;;
19907;SDS011;10116;53.112;7.356;2024-02-21T04:23:33;2.07;;;1.77;;
19907;SDS011;10116;53.112;7.356;2024-02-21T04:25:58;1.80;;;1.60;;
19907;SDS011;10116;53.112;7.356;2024-02-21T04:28:24;2.23;;;2.03;;
19907;SDS011;10116;53.112;7.356;2024-02-21T04:30:50;1.70;;;1.60;;
19907;SDS011;10116;53.112;7.356;2024-02-21T04:33:15;1.93;;;1.73;;
19907;SDS011;10116;53.112;7.356;2024-02-21T04:35:41;1.73;;;1.63;;
19907;SDS011;10116;53.112;7.356;2024-02-21T04:38:07;1.87;;;1.77;;
19907;SDS011;10116;53.112;7.356;2024-02-21T04:40:32;2.60;;;1.80;;
19907;SDS011;10116;53.112;7.356;2024-02-21T04:42:58;1.73;;;1.47;;
19907;SDS011;10116;53.112;7.356;2024-02-21T04:45:24;1.73;;;1.63;;
19907;SDS011;10116;53.112;7.356;2024-02-21T04:47:50;1.60;;;1.60;;
19907;SDS011;10116;53.112;7.356;2024-02-21T04:50:15;1.60;;;1.50;;
19907;SDS011;10116;53.112;7.356;2024-02-21T04:52:41;2.50;;;1.80;;
19907;SDS011;10116;53.112;7.356;2024-02-21T04:55:07;1.93;;;1.83;;
19907;SDS011;10116;53.112;7.356;2024-02-21T04:57:33;1.70;;;1.60;;
19907;SDS011;10116;53.112;7.356;2024-02-21T04:59:59;2.50;;;1.77;;
19907;SDS011;10116;53.112;7.356;2024-02-21T05:02:24;1.80;;;1.70;;
19907;SDS011;10116;53.112;7.356;2024-02-21T05:04:52;1.60;;;1.50;;
19907;SDS011;10116;53.112;7.356;2024-02-21T05:07:17;1.67;;;1.50;;
19907;SDS011;10116;53.112;7.356;2024-02-21T05:09:44;1.40;;;1.30;;
19907;SDS011;10116;53.112;7.356;2024-02-21T05:12:10;1.30;;;1.30;;
19907;SDS011;10116;53.112;7.356;2024-02-21T05:14:36;1.70;;;1.60;;
19907;SDS011;10116;53.112;7.356;2024-02-21T05:17:02;1.63;;;1.40;;
19907;SDS011;10116;53.112;7.356;2024-02-21T05:19:29;1.57;;;1.40;;
19907;SDS011;10116;53.112;7.356;2024-02-21T05:21:54;1.20;;;1.20;;
19907;SDS011;10116;53.112;7.356;2024-02-21T05:24:20;1.47;;;1.47;;
19907;SDS011;10116;53.112;7.356;2024-02-21T05:26:46;1.60;;;1.50;;
19907;SDS011;10116;53.112;7.356;2024-02-21T05:29:11;1.50;;;1.40;;
19907;SDS011;10116;53.112;7.356;2024-02-21T05:34:18;1.93;;;1.70;;
19907;SDS011;10116;53.112;7.356;2024-02-21T05:36:45;1.87;;;1.23;;
19907;SDS011;10116;53.112;7.356;2024-02-21T05:39:11;1.33;;;1.27;;
19907;SDS011;10116;53.112;7.356;2024-02-21T05:41:37;1.13;;;1.13;;
19907;SDS011;10116;53.112;7.356;2024-02-21T05:44:02;1.70;;;1.60;;
19907;SDS011;10116;53.112;7.356;2024-02-21T05:46:28;1.13;;;1.13;;
19907;SDS011;10116;53.112;7.356;2024-02-21T05:48:54;1.37;;;1.27;;
19907;SDS011;10116;53.112;7.356;2024-02-21T05:51:19;1.33;;;1.30;;
19907;SDS011;10116;53.112;7.356;2024-02-21T05:53:45;1.63;;;1.40;;
19907;SDS011;10116;53.112;7.356;2024-02-21T05:56:11;1.93;;;1.60;;
19907;SDS011;10116;53.112;7.356;2024-02-21T05:58:38;1.17;;;1.17;;
19907;SDS011;10116;53.112;7.356;2024-02-21T06:01:04;1.33;;;1.10;;
19907;SDS011;10116;53.112;7.356;2024-02-21T06:03:31;1.30;;;1.20;;
19907;SDS011;10116;53.112;7.356;2024-02-21T06:05:58;1.20;;;1.10;;
19907;SDS011;10116;53.112;7.356;2024-02-21T06:08:27;1.20;;;1.20;;
19907;SDS011;10116;53.112;7.356;2024-02-21T06:10:53;0.80;;;0.80;;
19907;SDS011;10116;53.112;7.356;2024-02-21T06:13:23;1.30;;;1.20;;
19907;SDS011;10116;53.112;7.356;2024-02-21T06:15:49;1.60;;;1.40;;
19907;SDS011;10116;53.112;7.356;2024-02-21T06:18:16;1.33;;;1.23;;
19907;SDS011;10116;53.112;7.356;2024-02-21T06:20:42;1.43;;;1.33;;
19907;SDS011;10116;53.112;7.356;2024-02-21T06:23:08;1.17;;;1.07;;
19907;SDS011;10116;53.112;7.356;2024-02-21T06:25:34;2.50;;;1.47;;
19907;SDS011;10116;53.112;7.356;2024-02-21T06:28:00;1.40;;;1.30;;
19907;SDS011;10116;53.112;7.356;2024-02-21T06:30:26;2.17;;;1.47;;
19907;SDS011;10116;53.112;7.356;2024-02-21T06:32:51;4.60;;;2.00;;
19907;SDS011;10116;53.112;7.356;2024-02-21T06:35:17;3.67;;;1.70;;
19907;SDS011;10116;53.112;7.356;2024-02-21T06:37:43;10.17;;;2.67;;
19907;SDS011;10116;53.112;7.356;2024-02-21T06:40:17;8.50;;;2.93;;
19907;SDS011;10116;53.112;7.356;2024-02-21T06:42:43;12.90;;;3.60;;
19907;SDS011;10116;53.112;7.356;2024-02-21T06:45:08;10.70;;;3.10;;
19907;SDS011;10116;53.112;7.356;2024-02-21T06:47:34;9.73;;;2.80;;
19907;SDS011;10116;53.112;7.356;2024-02-21T06:50:00;10.83;;;3.50;;
19907;SDS011;10116;53.112;7.356;2024-02-21T06:52:25;14.20;;;4.00;;
19907;SDS011;10116;53.112;7.356;2024-02-21T06:54:51;9.60;;;3.77;;
19907;SDS011;10116;53.112;7.356;2024-02-21T06:57:17;8.70;;;3.00;;
19907;SDS011;10116;53.112;7.356;2024-02-21T06:59:43;9.40;;;3.80;;
19907;SDS011;10116;53.112;7.356;2024-02-21T07:02:08;11.50;;;3.57;;
19907;SDS011;10116;53.112;7.356;2024-02-21T07:04:34;9.40;;;3.77;;
19907;SDS011;10116;53.112;7.356;2024-02-21T07:07:00;9.90;;;3.50;;
19907;SDS011;10116;53.112;7.356;2024-02-21T07:09:25;10.80;;;3.13;;
19907;SDS011;10116;53.112;7.356;2024-02-21T07:11:53;9.70;;;3.20;;
19907;SDS011;10116;53.112;7.356;2024-02-21T07:14:19;13.17;;;4.33;;
19907;SDS011;10116;53.112;7.356;2024-02-21T07:16:45;14.10;;;3.97;;
19907;SDS011;10116;53.112;7.356;2024-02-21T07:19:10;11.93;;;3.60;;
19907;SDS011;10116;53.112;7.356;2024-02-21T07:21:36;11.93;;;3.40;;
19907;SDS011;10116;53.112;7.356;2024-02-21T07:24:03;7.60;;;3.60;;
19907;SDS011;10116;53.112;7.356;2024-02-21T07:26:29;13.00;;;3.83;;
19907;SDS011;10116;53.112;7.356;2024-02-21T07:28:56;10.30;;;3.90;;
19907;SDS011;10116;53.112;7.356;2024-02-21T07:31:22;8.03;;;3.93;;
19907;SDS011;10116;53.112;7.356;2024-02-21T07:33:47;13.23;;;4.13;;
19907;SDS011;10116;53.112;7.356;2024-02-21T07:36:15;6.90;;;2.97;;
19907;SDS011;10116;53.112;7.356;2024-02-21T07:38:41;11.37;;;3.80;;
19907;SDS011;10116;53.112;7.356;2024-02-21T07:41:06;9.10;;;4.00;;
19907;SDS011;10116;53.112;7.356;2024-02-21T07:43:32;10.80;;;4.23;;
19907;SDS011;10116;53.112;7.356;2024-02-21T07:45:58;7.57;;;3.47;;
19907;SDS011;10116;53.112;7.356;2024-02-21T07:48:23;8.53;;;3.30;;
19907;SDS011;10116;53.112;7.356;2024-02-21T07:50:52;9.47;;;3.23;;
19907;SDS011;10116;53.112;7.356;2024-02-21T07:53:18;9.57;;;4.40;;
19907;SDS011;10116;53.112;7.356;2024-02-21T07:55:44;6.10;;;2.57;;
19907;SDS011;10116;53.112;7.356;2024-02-21T07:58:10;11.63;;;3.77;;
19907;SDS011;10116;53.112;7.356;2024-02-21T08:00:36;9.77;;;4.17;;
19907;SDS011;10116;53.112;7.356;2024-02-21T08:03:01;5.73;;;3.57;;
19907;SDS011;10116;53.112;7.356;2024-02-21T08:05:28;7.73;;;3.43;;
19907;SDS011;10116;53.112;7.356;2024-02-21T08:07:55;6.00;;;3.13;;
19907;SDS011;10116;53.112;7.356;2024-02-21T08:10:20;6.20;;;2.90;;
19907;SDS011;10116;53.112;7.356;2024-02-21T08:12:46;6.67;;;3.10;;
19907;SDS011;10116;53.112;7.356;2024-02-21T08:15:12;9.10;;;3.50;;
19907;SDS011;10116;53.112;7.356;2024-02-21T08:17:37;8.70;;;3.43;;
19907;SDS011;10116;53.112;7.356;2024-02-21T08:20:04;5.97;;;2.80;;
19907;SDS011;10116;53.112;7.356;2024-02-21T08:22:30;7.23;;;3.03;;
19907;SDS011;10116;53.112;7.356;2024-02-21T08:24:56;5.67;;;2.93;;
19907;SDS011;10116;53.112;7.356;2024-02-21T08:27:21;4.73;;;2.70;;
19907;SDS011;10116;53.112;7.356;2024-02-21T08:29:47;7.10;;;3.00;;
19907;SDS011;10116;53.112;7.356;2024-02-21T08:32:12;6.77;;;3.07;;
19907;SDS011;10116;53.112;7.356;2024-02-21T08:34:38;6.90;;;3.00;;
19907;SDS011;10116;53.112;7.356;2024-02-21T08:37:04;4.73;;;2.77;;
19907;SDS011;10116;53.112;7.356;2024-02-21T08:39:29;8.20;;;2.97;;
19907;SDS011;10116;53.112;7.356;2024-02-21T08:41:55;6.50;;;2.70;;
19907;SDS011;10116;53.112;7.356;2024-02-21T08:44:22;6.43;;;2.90;;
19907;SDS011;10116;53.112;7.356;2024-02-21T08:46:51;7.53;;;3.07;;
19907;SDS011;10116;53.112;7.356;2024-02-21T08:49:17;6.77;;;2.67;;
19907;SDS011;10116;53.112;7.356;2024-02-21T08:51:42;8.70;;;3.10;;
19907;SDS011;10116;53.112;7.356;2024-02-21T08:54:08;4.60;;;2.63;;
19907;SDS011;10116;53.112;7.356;2024-02-21T08:56:34;4.70;;;2.60;;
19907;SDS011;10116;53.112;7.356;2024-02-21T08:59:00;4.23;;;2.53;;
19907;SDS011;10116;53.112;7.356;2024-02-21T09:01:26;5.13;;;2.90;;
19907;SDS011;10116;53.112;7.356;2024-02-21T09:03:52;7.90;;;3.07;;
19907;SDS011;10116;53.112;7.356;2024-02-21T09:06:19;4.67;;;2.67;;
19907;SDS011;10116;53.112;7.356;2024-02-21T09:08:47;7.50;;;2.50;;
19907;SDS011;10116;53.112;7.356;2024-02-21T09:11:13;4.80;;;3.03;;
19907;SDS011;10116;53.112;7.356;2024-02-21T09:13:39;5.20;;;2.57;;
19907;SDS011;10116;53.112;7.356;2024-02-21T09:16:04;3.80;;;2.73;;
19907;SDS011;10116;53.112;7.356;2024-02-21T09:18:31;5.83;;;2.70;;
19907;SDS011;10116;53.112;7.356;2024-02-21T09:20:56;5.17;;;2.80;;
19907;SDS011;10116;53.112;7.356;2024-02-21T09:23:25;4.90;;;2.50;;
19907;SDS011;10116;53.112;7.356;2024-02-21T09:25:51;8.73;;;3.23;;
19907;SDS011;10116;53.112;7.356;2024-02-21T09:28:16;6.57;;;2.90;;
19907;SDS011;10116;53.112;7.356;2024-02-21T09:30:42;7.10;;;2.40;;
19907;SDS011;10116;53.112;7.356;2024-02-21T09:33:08;7.63;;;3.50;;
19907;SDS011;10116;53.112;7.356;2024-02-21T09:35:33;4.50;;;2.50;;
19907;SDS011;10116;53.112;7.356;2024-02-21T09:37:59;4.90;;;2.63;;
19907;SDS011;10116;53.112;7.356;2024-02-21T09:40:25;5.70;;;2.80;;
19907;SDS011;10116;53.112;7.356;2024-02-21T09:42:53;4.40;;;2.67;;
19907;SDS011;10116;53.112;7.356;2024-02-21T09:45:29;6.33;;;2.87;;
19907;SDS011;10116;53.112;7.356;2024-02-21T09:50:35;4.23;;;3.20;;
19907;SDS011;10116;53.112;7.356;2024-02-21T09:53:03;3.90;;;2.50;;
19907;SDS011;10116;53.112;7.356;2024-02-21T09:55:31;4.87;;;2.50;;
19907;SDS011;10116;53.112;7.356;2024-02-21T09:57:59;3.50;;;2.30;;
19907;SDS011;10116;53.112;7.356;2024-02-21T10:00:26;4.67;;;2.50;;
19907;SDS011;10116;53.112;7.356;2024-02-21T10:02:53;5.43;;;2.70;;
19907;SDS011;10116;53.112;7.356;2024-02-21T10:05:19;4.70;;;2.20;;
19907;SDS011;10116;53.112;7.356;2024-02-21T10:07:44;3.20;;;2.60;;
19907;SDS011;10116;53.112;7.356;2024-02-21T10:10:10;2.27;;;2.07;;
19907;SDS011;10116;53.112;7.356;2024-02-21T10:12:36;3.97;;;2.40;;
19907;SDS011;10116;53.112;7.356;2024-02-21T10:15:12;3.90;;;2.60;;
19907;SDS011;10116;53.112;7.356;2024-02-21T10:17:38;4.47;;;2.57;;
19907;SDS011;10116;53.112;7.356;2024-02-21T10:20:07;5.47;;;2.37;;
19907;SDS011;10116;53.112;7.356;2024-02-21T10:22:34;2.67;;;2.47;;
19907;SDS011;10116;53.112;7.356;2024-02-21T10:25:10;4.63;;;2.87;;
19907;SDS011;10116;53.112;7.356;2024-02-21T10:27:37;2.70;;;2.50;;
19907;SDS011;10116;53.112;7.356;2024-02-21T10:30:05;4.37;;;2.37;;
19907;SDS011;10116;53.112;7.356;2024-02-21T10:32:33;2.30;;;2.10;;
19907;SDS011;10116;53.112;7.356;2024-02-21T10:35:04;2.97;;;2.67;;
19907;SDS011;10116;53.112;7.356;2024-02-21T10:37:30;2.87;;;2.37;;
19907;SDS011;10116;53.112;7.356;2024-02-21T10:39:57;3.53;;;2.30;;
19907;SDS011;10116;53.112;7.356;2024-02-21T10:42:23;2.50;;;2.10;;
19907;SDS011;10116;53.112;7.356;2024-02-21T10:44:53;2.90;;;2.23;;
19907;SDS011;10116;53.112;7.356;2024-02-21T10:47:23;2.30;;;2.10;;
19907;SDS011;10116;53.112;7.356;2024-02-21T10:49:57;2.83;;;2.20;;
19907;SDS011;10116;53.112;7.356;2024-02-21T10:55:16;2.47;;;2.00;;
19907;SDS011;10116;53.112;7.356;2024-02-21T10:57:48;2.80;;;2.40;;
19907;SDS011;10116;53.112;7.356;2024-02-21T11:00:16;2.23;;;2.03;;
19907;SDS011;10116;53.112;7.356;2024-02-21T11:02:43;2.50;;;2.23;;
19907;SDS011;10116;53.112;7.356;2024-02-21T11:05:09;2.83;;;2.20;;
19907;SDS011;10116;53.112;7.356;2024-02-21T11:07:35;2.70;;;2.23;;
19907;SDS011;10116;53.112;7.356;2024-02-21T11:10:02;2.40;;;2.20;;
19907;SDS011;10116;53.112;7.356;2024-02-21T11:12:32;3.83;;;2.20;;
19907;SDS011;10116;53.112;7.356;2024-02-21T11:15:05;3.10;;;1.90;;
19907;SDS011;10116;53.112;7.356;2024-02-21T11:17:31;3.23;;;2.37;;
19907;SDS011;10116;53.112;7.356;2024-02-21T11:19:56;7.43;;;1.80;;
19907;SDS011;10116;53.112;7.356;2024-02-21T11:22:24;3.33;;;2.17;;
19907;SDS011;10116;53.112;7.356;2024-02-21T11:24:54;2.10;;;1.87;;
19907;SDS011;10116;53.112;7.356;2024-02-21T11:27:21;3.33;;;1.77;;
19907;SDS011;10116;53.112;7.356;2024-02-21T11:29:54;2.00;;;1.80;;
19907;SDS011;10116;53.112;7.356;2024-02-21T11:32:21;2.27;;;1.70;;
19907;SDS011;10116;53.112;7.356;2024-02-21T11:34:54;2.03;;;1.83;;
19907;SDS011;10116;53.112;7.356;2024-02-21T11:37:20;3.47;;;2.20;;
19907;SDS011;10116;53.112;7.356;2024-02-21T11:39:45;2.97;;;1.90;;
19907;SDS011;10116;53.112;7.356;2024-02-21T11:42:11;2.03;;;1.60;;
19907;SDS011;10116;53.112;7.356;2024-02-21T11:44:38;3.60;;;1.67;;
19907;SDS011;10116;53.112;7.356;2024-02-21T11:47:04;2.83;;;2.27;;
19907;SDS011;10116;53.112;7.356;2024-02-21T11:49:36;2.10;;;1.70;;
19907;SDS011;10116;53.112;7.356;2024-02-21T11:52:08;3.60;;;1.97;;
19907;SDS011;10116;53.112;7.356;2024-02-21T11:54:34;4.20;;;2.80;;
19907;SDS011;10116;53.112;7.356;2024-02-21T11:57:00;3.17;;;2.30;;
19907;SDS011;10116;53.112;7.356;2024-02-21T11:59:26;1.93;;;1.80;;
19907;SDS011;10116;53.112;7.356;2024-02-21T12:01:54;1.87;;;1.73;;
19907;SDS011;10116;53.112;7.356;2024-02-21T12:04:21;3.10;;;2.20;;
19907;SDS011;10116;53.112;7.356;2024-02-21T12:06:49;2.20;;;1.50;;
19907;SDS011;10116;53.112;7.356;2024-02-21T12:09:15;4.23;;;2.07;;
19907;SDS011;10116;53.112;7.356;2024-02-21T12:11:45;2.17;;;1.90;;
19907;SDS011;10116;53.112;7.356;2024-02-21T12:14:15;2.20;;;2.10;;
19907;SDS011;10116;53.112;7.356;2024-02-21T12:16:41;2.00;;;1.90;;
19907;SDS011;10116;53.112;7.356;2024-02-21T12:19:09;1.93;;;1.70;;
19907;SDS011;10116;53.112;7.356;2024-02-21T12:21:35;2.20;;;1.80;;
19907;SDS011;10116;53.112;7.356;2024-02-21T12:24:22;2.50;;;1.53;;
19907;SDS011;10116;53.112;7.356;2024-02-21T12:26:49;2.73;;;1.80;;
19907;SDS011;10116;53.112;7.356;2024-02-21T12:29:19;2.67;;;1.83;;
19907;SDS011;10116;53.112;7.356;2024-02-21T12:31:45;2.57;;;2.00;;
19907;SDS011;10116;53.112;7.356;2024-02-21T12:34:12;52.67;;;4.07;;
19907;SDS011;10116;53.112;7.356;2024-02-21T12:36:41;23.10;;;2.20;;
19907;SDS011;10116;53.112;7.356;2024-02-21T12:39:09;5.00;;;1.93;;
19907;SDS011;10116;53.112;7.356;2024-02-21T12:41:35;3.93;;;2.03;;
19907;SDS011;10116;53.112;7.356;2024-02-21T12:44:03;16.43;;;2.50;;
19907;SDS011;10116;53.112;7.356;2024-02-21T12:46:32;3.97;;;2.20;;
19907;SDS011;10116;53.112;7.356;2024-02-21T12:49:00;8.73;;;1.90;;
19907;SDS011;10116;53.112;7.356;2024-02-21T12:51:29;2.77;;;2.10;;
19907;SDS011;10116;53.112;7.356;2024-02-21T12:53:57;4.00;;;2.00;;
19907;SDS011;10116;53.112;7.356;2024-02-21T12:56:24;4.57;;;2.70;;
19907;SDS011;10116;53.112;7.356;2024-02-21T12:58:52;10.03;;;2.77;;
19907;SDS011;10116;53.112;7.356;2024-02-21T13:01:18;5.23;;;2.30;;
19907;SDS011;10116;53.112;7.356;2024-02-21T13:03:43;5.00;;;2.00;;
19907;SDS011;10116;53.112;7.356;2024-02-21T13:06:09;3.80;;;2.20;;
19907;SDS011;10116;53.112;7.356;2024-02-21T13:08:38;4.03;;;2.07;;
19907;SDS011;10116;53.112;7.356;2024-02-21T13:11:04;4.20;;;2.23;;
19907;SDS011;10116;53.112;7.356;2024-02-21T13:13:30;6.53;;;2.63;;
19907;SDS011;10116;53.112;7.356;2024-02-21T13:15:57;3.27;;;2.20;;
19907;SDS011;10116;53.112;7.356;2024-02-21T13:18:23;6.47;;;2.63;;
19907;SDS011;10116;53.112;7.356;2024-02-21T13:20:48;4.90;;;2.07;;
19907;SDS011;10116;53.112;7.356;2024-02-21T13:23:14;6.10;;;1.97;;
19907;SDS011;10116;53.112;7.356;2024-02-21T13:25:40;3.20;;;2.07;;
19907;SDS011;10116;53.112;7.356;2024-02-21T13:28:05;5.83;;;2.10;;
19907;SDS011;10116;53.112;7.356;2024-02-21T13:30:32;5.67;;;2.30;;
19907;SDS011;10116;53.112;7.356;2024-02-21T13:32:57;8.77;;;2.33;;
19907;SDS011;10116;53.112;7.356;2024-02-21T13:35:23;2.80;;;2.27;;
19907;SDS011;10116;53.112;7.356;2024-02-21T13:37:49;2.93;;;2.17;;
19907;SDS011;10116;53.112;7.356;2024-02-21T13:40:15;2.20;;;1.80;;
19907;SDS011;10116;53.112;7.356;2024-02-21T13:42:41;1.93;;;1.83;;
19907;SDS011;10116;53.112;7.356;2024-02-21T13:45:08;5.00;;;2.30;;
19907;SDS011;10116;53.112;7.356;2024-02-21T13:47:34;2.73;;;2.10;;
19907;SDS011;10116;53.112;7.356;2024-02-21T13:50:06;2.03;;;1.60;;
19907;SDS011;10116;53.112;7.356;2024-02-21T13:52:36;2.03;;;1.80;;
19907;SDS011;10116;53.112;7.356;2024-02-21T13:55:02;2.00;;;1.70;;
19907;SDS011;10116;53.112;7.356;2024-02-21T13:57:28;2.40;;;1.60;;
19907;SDS011;10116;53.112;7.356;2024-02-21T13:59:54;1.93;;;1.50;;
19907;SDS011;10116;53.112;7.356;2024-02-21T14:02:19;1.60;;;1.50;;
19907;SDS011;10116;53.112;7.356;2024-02-21T14:04:46;1.43;;;1.33;;
19907;SDS011;10116;53.112;7.356;2024-02-21T14:07:12;1.57;;;1.47;;
19907;SDS011;10116;53.112;7.356;2024-02-21T14:09:38;2.73;;;1.50;;
19907;SDS011;10116;53.112;7.356;2024-02-21T14:12:03;2.57;;;1.67;;
19907;SDS011;10116;53.112;7.356;2024-02-21T14:14:33;2.10;;;1.30;;
19907;SDS011;10116;53.112;7.356;2024-02-21T14:17:02;2.20;;;1.20;;
19907;SDS011;10116;53.112;7.356;2024-02-21T14:19:28;11.10;;;1.37;;
19907;SDS011;10116;53.112;7.356;2024-02-21T14:21:54;3.13;;;1.43;;
19907;SDS011;10116;53.112;7.356;2024-02-21T14:24:21;1.20;;;0.97;;
19907;SDS011;10116;53.112;7.356;2024-02-21T14:26:47;1.30;;;1.30;;
19907;SDS011;10116;53.112;7.356;2024-02-21T14:29:13;2.03;;;1.23;;
19907;SDS011;10116;53.112;7.356;2024-02-21T14:31:39;1.10;;;1.03;;
19907;SDS011;10116;53.112;7.356;2024-02-21T14:34:05;2.47;;;1.20;;
19907;SDS011;10116;53.112;7.356;2024-02-21T14:36:32;1.70;;;1.27;;
19907;SDS011;10116;53.112;7.356;2024-02-21T14:38:58;1.80;;;1.47;;
19907;SDS011;10116;53.112;7.356;2024-02-21T14:41:24;2.97;;;1.50;;
19907;SDS011;10116;53.112;7.356;2024-02-21T14:43:49;2.43;;;1.57;;
19907;SDS011;10116;53.112;7.356;2024-02-21T14:46:16;1.30;;;1.20;;
19907;SDS011;10116;53.112;7.356;2024-02-21T14:48:42;2.73;;;1.67;;
19907;SDS011;10116;53.112;7.356;2024-02-21T14:51:08;2.40;;;1.40;;